Time;durP1;ratioP1;P1;durP2;ratioP2;P2;SDS_P1;SDS_P2;PMS_P1;PMS_P2;Temp;Humidity;BMP_temperature;BMP_pressure;BME280_temperature;BME280_humidity;BME280_pressure;Samples;Min_cycle;Max_cycle;Signal;HPM_P1;HPM_P2
2023/12/19 00:00:14;;;;;;;21.27;15.40;;;0.30;97.80;;;-0.64;100.00;99120.56;5010970;28;20454;-70
2023/12/19 00:02:41;;;;;;;20.80;14.17;;;0.30;97.90;;;-0.63;100.00;99117.78;5013992;28;21009;-70
2023/12/19 00:05:09;;;;;;;20.30;16.27;;;0.30;98.10;;;-0.64;100.00;99115.25;5015741;28;21220;-70
2023/12/19 00:07:38;;;;;;;20.17;14.17;;;0.30;97.90;;;-0.63;100.00;99116.94;4999256;28;20471;-70
2023/12/19 00:10:07;;;;;;;20.67;14.20;;;0.30;98.00;;;-0.65;100.00;99109.09;5001905;28;20473;-71
2023/12/19 00:12:34;;;;;;;19.27;15.00;;;0.30;98.30;;;-0.74;100.00;99115.09;4988335;28;20456;-70
2023/12/19 00:15:04;;;;;;;22.23;15.20;;;0.30;98.10;;;-0.72;100.00;99113.16;5021586;28;20542;-71
2023/12/19 00:17:31;;;;;;;19.90;16.03;;;0.20;98.10;;;-1.12;100.00;99044.56;5015948;28;20459;-70
2023/12/19 00:19:58;;;;;;;20.03;15.37;;;0.20;98.00;;;-0.63;100.00;99117.78;5018232;28;20466;-70
2023/12/19 00:22:26;;;;;;;18.90;14.03;;;0.20;97.80;;;-0.79;100.00;99117.25;5002152;28;20463;-71
2023/12/19 00:24:53;;;;;;;22.03;13.53;;;0.10;97.50;;;-0.77;100.00;99118.81;5012961;28;20465;-71
2023/12/19 00:27:21;;;;;;;17.43;13.90;;;0.10;97.80;;;-0.80;100.00;99120.88;5004388;28;21004;-72
2023/12/19 00:29:48;;;;;;;23.43;14.30;;;0.10;97.80;;;-0.80;100.00;99102.31;5005001;28;20557;-72
2023/12/19 00:32:18;;;;;;;22.67;15.40;;;0.10;98.00;;;-1.03;100.00;99068.59;5009708;28;20494;-70
2023/12/19 00:34:45;;;;;;;23.70;15.37;;;0.10;98.20;;;-0.82;100.00;99096.28;5016200;28;20498;-71
2023/12/19 00:37:13;;;;;;;18.97;13.50;;;0.10;98.50;;;-0.80;100.00;99097.00;5011363;28;20476;-72
2023/12/19 00:39:41;;;;;;;18.70;14.07;;;0.10;98.80;;;-0.79;100.00;99090.72;5004372;28;20465;-71
2023/12/19 00:42:08;;;;;;;22.63;15.00;;;0.10;98.80;;;-0.81;100.00;99088.19;5019189;28;20517;-72
2023/12/19 00:44:37;;;;;;;24.57;14.60;;;0.10;98.50;;;-0.80;100.00;99089.03;5013388;28;21051;-70
2023/12/19 00:47:04;;;;;;;18.43;14.90;;;0.10;98.60;;;-0.86;100.00;99080.56;5018073;28;20838;-71
2023/12/19 00:49:34;;;;;;;24.03;16.37;;;0.00;98.60;;;-0.90;100.00;99083.59;5002686;28;20468;-71
2023/12/19 00:52:02;;;;;;;20.87;13.93;;;0.00;98.80;;;-1.23;100.00;99030.28;5015401;28;20475;-69
2023/12/19 00:54:29;;;;;;;19.90;14.17;;;0.00;98.60;;;-0.83;100.00;99099.84;5013234;28;20493;-70
2023/12/19 00:56:57;;;;;;;22.00;14.87;;;0.00;98.60;;;-0.81;100.00;99100.63;5005589;28;20542;-70
2023/12/19 00:59:24;;;;;;;22.77;15.00;;;0.00;99.00;;;-0.80;100.00;99091.69;5021672;28;20464;-70
2023/12/19 01:01:51;;;;;;;21.17;15.70;;;0.10;99.10;;;-0.83;100.00;99110.47;4998878;28;20453;-70
2023/12/19 01:04:19;;;;;;;19.60;15.07;;;0.10;99.00;;;-0.84;100.00;99108.78;5016284;28;20514;-71
2023/12/19 01:06:48;;;;;;;20.80;14.40;;;0.10;98.70;;;-0.80;100.00;99112.91;5014170;28;20471;-71
2023/12/19 01:09:15;;;;;;;22.80;15.30;;;0.00;98.90;;;-0.87;100.00;99091.31;4995689;28;20456;-72
2023/12/19 01:11:43;;;;;;;20.00;14.00;;;0.10;99.00;;;-0.88;100.00;99090.44;5011853;28;21269;-71
2023/12/19 01:14:11;;;;;;;19.57;14.47;;;0.10;99.10;;;-0.83;100.00;99089.25;5015107;28;20463;-71
2023/12/19 01:16:38;;;;;;;17.80;12.97;;;0.10;98.90;;;-0.68;100.00;99097.88;5002656;28;20457;-71
2023/12/19 01:19:09;;;;;;;23.87;15.07;;;0.20;99.10;;;-0.67;100.00;99108.38;5001664;28;20461;-71
2023/12/19 01:21:37;;;;;;;23.90;15.60;;;0.20;98.60;;;-0.69;100.00;99117.41;5020075;28;20550;-72
2023/12/19 01:24:06;;;;;;;20.53;13.73;;;0.20;98.20;;;-0.72;100.00;99107.88;5017156;28;20454;-71
2023/12/19 01:26:34;;;;;;;17.93;14.17;;;0.20;98.10;;;-0.72;100.00;99107.88;5019113;28;20547;-71
2023/12/19 01:29:02;;;;;;;21.17;14.60;;;0.20;98.10;;;-0.69;100.00;99106.78;5016710;28;20508;-72
2023/12/19 01:31:29;;;;;;;21.63;15.07;;;0.30;97.90;;;-0.66;100.00;99090.63;5019519;28;21009;-72
2023/12/19 01:33:57;;;;;;;20.20;13.50;;;0.30;97.80;;;-0.59;100.00;99082.06;5012811;28;20464;-72
2023/12/19 01:36:25;;;;;;;19.87;13.50;;;0.40;97.80;;;-0.62;100.00;99054.91;5020482;28;20517;-71
2023/12/19 01:38:53;;;;;;;18.03;13.97;;;0.40;97.60;;;-0.37;100.00;99069.81;5008196;28;20979;-71
2023/12/19 01:41:22;;;;;;;18.23;14.47;;;0.50;97.40;;;-0.31;100.00;99079.94;4998954;28;20464;-71
2023/12/19 01:43:49;;;;;;;22.03;14.93;;;0.60;96.90;;;-0.26;100.00;99068.09;5012734;28;20460;-69
2023/12/19 01:46:18;;;;;;;15.80;12.83;;;0.60;96.30;;;-0.48;100.00;99045.91;5021426;28;21046;-69
2023/12/19 01:48:46;;;;;;;22.40;13.83;;;0.70;95.90;;;-0.22;100.00;99078.38;5004137;28;20541;-70
2023/12/19 01:51:14;;;;;;;16.30;12.70;;;0.70;95.50;;;-0.10;100.00;99084.53;5017900;28;20474;-70
2023/12/19 01:53:44;;;;;;;16.73;12.27;;;0.80;95.30;;;-0.14;100.00;99075.13;5004081;28;20512;-70
2023/12/19 01:56:12;;;;;;;17.33;13.37;;;0.80;95.00;;;-0.09;100.00;99075.59;5009198;28;20520;-70
2023/12/19 01:58:42;;;;;;;17.47;12.80;;;0.80;94.60;;;-0.09;100.00;99072.94;5018045;28;20563;-71
2023/12/19 02:01:10;;;;;;;18.53;13.80;;;0.90;94.20;;;-0.07;100.00;99079.00;5000748;28;20460;-72
2023/12/19 02:03:38;;;;;;;19.10;13.17;;;0.90;94.10;;;-0.03;100.00;99074.25;5002636;28;20463;-70
2023/12/19 02:06:06;;;;;;;16.80;12.70;;;0.90;93.70;;;-0.09;99.67;99083.56;5017565;28;20481;-70
2023/12/19 02:08:34;;;;;;;19.33;13.80;;;0.90;92.90;;;0.02;99.70;99068.59;5013290;28;20457;-71
2023/12/19 02:11:03;;;;;;;14.50;12.33;;;0.90;93.10;;;-0.02;99.73;99062.66;5023375;28;20575;-70
2023/12/19 02:13:30;;;;;;;16.20;12.50;;;0.90;93.40;;;0.00;99.43;99055.44;5009794;28;20458;-71
2023/12/19 02:16:00;;;;;;;17.93;12.50;;;0.90;93.10;;;0.08;98.95;99054.84;5009591;28;20509;-72
2023/12/19 02:18:27;;;;;;;16.70;13.20;;;1.00;93.10;;;0.03;98.76;99027.75;5011419;28;20460;-71
2023/12/19 02:20:55;;;;;;;16.93;12.73;;;1.00;93.00;;;0.10;98.77;99036.94;4996538;28;20601;-71
2023/12/19 02:23:24;;;;;;;15.83;12.47;;;1.00;92.60;;;0.07;98.64;99034.50;5000948;28;20443;-72
2023/12/19 02:25:52;;;;;;;19.63;12.40;;;1.00;92.40;;;0.07;98.59;99053.97;5018643;28;20498;-72
2023/12/19 02:28:19;;;;;;;17.20;12.70;;;1.00;92.00;;;0.03;98.12;99043.69;5001026;28;20467;-71
2023/12/19 02:30:47;;;;;;;18.40;12.50;;;1.00;91.90;;;0.13;98.05;99056.13;5016745;28;20483;-70
2023/12/19 02:33:14;;;;;;;15.87;11.63;;;1.10;91.90;;;0.12;97.62;99061.56;5015414;28;20461;-70
2023/12/19 02:35:43;;;;;;;18.47;12.87;;;1.00;91.80;;;0.14;97.13;99068.44;5009397;28;20501;-71
2023/12/19 02:38:10;;;;;;;14.83;11.93;;;1.10;91.30;;;0.13;97.18;99061.44;5019602;28;20448;-71
2023/12/19 02:40:39;;;;;;;15.03;11.57;;;1.10;91.20;;;0.09;96.85;99067.97;5013411;28;20458;-72
2023/12/19 02:43:06;;;;;;;15.97;12.20;;;1.10;90.90;;;0.11;96.58;99059.91;5016487;28;20450;-71
2023/12/19 02:45:34;;;;;;;14.57;11.60;;;1.00;91.10;;;0.18;96.15;99074.38;5016305;28;20469;-71
2023/12/19 02:48:02;;;;;;;14.30;11.00;;;1.00;91.10;;;0.21;95.95;99079.44;5015047;28;20458;-72
2023/12/19 02:50:29;;;;;;;14.37;11.80;;;0.90;91.20;;;0.20;95.89;99067.09;5018306;28;20465;-71
2023/12/19 02:52:56;;;;;;;15.73;11.50;;;1.00;91.40;;;0.07;96.25;99056.63;4993020;28;20466;-71
2023/12/19 02:55:24;;;;;;;16.10;12.40;;;0.90;91.40;;;-0.08;97.55;99053.38;4998960;28;20459;-72
2023/12/19 02:57:52;;;;;;;15.43;11.60;;;0.80;91.60;;;-0.16;98.05;99031.88;5007813;28;20579;-70
2023/12/19 03:00:20;;;;;;;17.07;12.10;;;0.80;91.90;;;0.01;97.79;99041.19;5022820;28;20455;-70
2023/12/19 03:02:47;;;;;;;16.60;11.27;;;0.90;92.00;;;0.06;97.07;99038.13;4997890;28;20567;-71
2023/12/19 03:05:14;;;;;;;16.30;12.43;;;0.90;91.70;;;0.07;97.14;99029.19;5004066;28;20610;-72
2023/12/19 03:07:42;;;;;;;17.00;12.33;;;1.00;91.80;;;0.11;96.81;99033.31;5013805;28;20976;-71
2023/12/19 03:10:10;;;;;;;14.90;10.73;;;1.00;91.70;;;0.08;97.11;99023.75;5006514;28;20466;-71
2023/12/19 03:12:37;;;;;;;15.03;11.30;;;1.00;91.60;;;0.14;96.95;99020.59;5022649;28;20475;-72
2023/12/19 03:15:08;;;;;;;16.83;12.70;;;1.00;91.60;;;0.14;96.51;99014.47;5023481;28;20463;-71
2023/12/19 03:17:35;;;;;;;16.37;12.00;;;1.00;91.30;;;0.22;96.24;99014.66;5017366;28;20457;-72
2023/12/19 03:20:04;;;;;;;14.83;11.70;;;1.10;91.30;;;0.25;95.79;99014.44;5019975;28;20455;-72
2023/12/19 03:22:33;;;;;;;16.17;11.50;;;1.10;91.00;;;0.23;95.93;99021.69;5015217;28;20501;-71
2023/12/19 03:25:00;;;;;;;15.73;11.40;;;1.10;91.00;;;0.36;95.74;99024.19;5013526;28;20469;-72
2023/12/19 03:27:28;;;;;;;15.67;11.57;;;1.20;91.00;;;0.49;94.98;99021.34;5019542;28;20533;-72
2023/12/19 03:29:55;;;;;;;12.63;10.40;;;1.20;90.90;;;0.46;94.29;99024.28;5000171;28;20457;-71
2023/12/19 03:32:23;;;;;;;13.07;11.13;;;1.30;90.60;;;0.43;94.43;99008.59;5020541;28;20476;-72
2023/12/19 03:34:51;;;;;;;12.50;9.77;;;1.30;90.20;;;0.36;94.82;99007.38;5020636;28;20537;-71
2023/12/19 03:37:18;;;;;;;15.47;11.37;;;1.30;89.80;;;0.38;94.48;98997.47;5007627;28;20465;-72
2023/12/19 03:39:46;;;;;;;11.90;9.37;;;1.30;89.40;;;0.46;94.41;98997.69;5006468;28;20451;-72
2023/12/19 03:42:14;;;;;;;15.67;11.13;;;1.40;89.10;;;0.45;93.65;98993.34;5022265;28;20538;-70
2023/12/19 03:44:42;;;;;;;17.63;10.20;;;1.50;88.50;;;0.46;93.64;98992.38;4994051;28;20461;-71
2023/12/19 03:47:13;;;;;;;13.90;10.93;;;1.50;88.10;;;0.47;93.60;98993.22;5020299;28;20534;-70
2023/12/19 03:49:41;;;;;;;13.27;9.77;;;1.40;88.20;;;0.48;93.51;98984.28;5022307;28;20460;-70
2023/12/19 03:52:10;;;;;;;16.00;11.47;;;1.40;88.20;;;0.55;93.11;98986.28;5023654;28;20475;-71
2023/12/19 03:54:37;;;;;;;10.87;9.57;;;1.40;88.50;;;0.53;93.11;98988.25;5025490;28;20463;-71
2023/12/19 03:57:05;;;;;;;16.57;11.23;;;1.40;88.10;;;0.39;92.94;98970.75;5014415;28;20451;-70
2023/12/19 03:59:33;;;;;;;13.33;9.30;;;1.40;88.00;;;0.51;92.56;98973.38;5005525;28;22013;-71
2023/12/19 04:02:01;;;;;;;15.20;9.80;;;1.40;88.10;;;0.51;92.44;98970.72;4993680;28;21474;-70
2023/12/19 04:04:28;;;;;;;13.10;9.90;;;1.40;87.60;;;0.47;92.71;98967.47;5016473;28;20464;-71
2023/12/19 04:06:57;;;;;;;11.60;9.83;;;1.40;87.40;;;0.49;92.23;98972.66;5017075;28;20502;-70
2023/12/19 04:09:24;;;;;;;17.17;11.10;;;1.40;87.40;;;0.47;92.03;98977.28;5018313;28;20462;-73
2023/12/19 04:11:52;;;;;;;11.67;9.50;;;1.40;87.30;;;0.44;92.29;98983.69;5003544;28;20961;-70
2023/12/19 04:14:19;;;;;;;11.47;9.73;;;1.30;87.00;;;0.46;92.48;98975.59;5011535;28;20461;-71
2023/12/19 04:16:46;;;;;;;13.97;11.17;;;1.30;87.80;;;0.39;92.59;98978.72;5014657;28;21128;-71
2023/12/19 04:19:15;;;;;;;14.70;10.17;;;1.30;87.60;;;0.37;92.32;98977.16;5010139;28;20516;-71
2023/12/19 04:21:42;;;;;;;13.23;8.63;;;1.20;87.70;;;0.45;91.87;98980.03;5018445;28;20448;-71
2023/12/19 04:24:11;;;;;;;15.00;11.00;;;1.20;87.60;;;0.28;92.15;98963.66;5015074;28;20465;-71
2023/12/19 04:26:39;;;;;;;11.83;9.37;;;1.20;87.40;;;0.29;92.38;98959.19;5019710;28;20987;-70
2023/12/19 04:29:07;;;;;;;12.27;9.97;;;1.20;87.70;;;0.24;92.50;98958.72;4995641;28;20506;-70
2023/12/19 04:31:34;;;;;;;14.70;10.60;;;1.10;87.50;;;0.25;92.29;98953.28;5014570;28;21076;-71
2023/12/19 04:34:02;;;;;;;15.30;10.43;;;1.10;87.70;;;0.17;92.27;98934.47;5020205;28;20463;-71
2023/12/19 04:36:31;;;;;;;13.40;10.13;;;1.10;87.70;;;0.20;92.61;98952.81;5015115;28;20468;-71
2023/12/19 04:39:00;;;;;;;12.80;9.83;;;1.10;88.00;;;0.07;92.92;98946.81;5010956;28;20564;-71
2023/12/19 04:41:28;;;;;;;14.43;11.40;;;1.00;87.70;;;0.04;93.01;98945.25;5014215;28;20770;-71
2023/12/19 04:43:55;;;;;;;16.80;11.27;;;1.00;88.10;;;0.09;93.32;98958.19;5002095;28;20463;-71
2023/12/19 04:46:23;;;;;;;12.30;10.03;;;0.90;88.00;;;0.03;93.64;98938.25;5022442;28;20482;-71
2023/12/19 04:48:50;;;;;;;19.10;14.50;;;0.90;88.60;;;-0.04;93.59;98937.91;5004540;28;20486;-71
2023/12/19 04:51:18;;;;;;;15.10;11.20;;;0.90;88.80;;;0.01;93.76;98932.22;4999715;28;21397;-71
2023/12/19 04:53:47;;;;;;;14.13;11.10;;;0.80;89.20;;;-0.01;93.81;98920.84;5019700;28;20458;-71
2023/12/19 04:56:14;;;;;;;13.23;9.57;;;0.90;89.00;;;0.03;93.81;98924.97;5014912;28;20455;-71
2023/12/19 04:58:46;;;;;;;14.97;10.57;;;0.80;89.30;;;-0.16;94.41;98902.53;5021196;28;20555;-71
2023/12/19 05:01:13;;;;;;;12.27;10.40;;;0.90;89.40;;;0.08;93.83;98935.25;5022231;28;20496;-71
2023/12/19 05:03:41;;;;;;;14.07;10.90;;;0.90;89.30;;;0.07;93.23;98944.16;5020040;28;20451;-71
2023/12/19 05:06:09;;;;;;;14.87;10.60;;;0.90;89.30;;;-0.01;92.85;98931.50;4999489;28;20460;-70
2023/12/19 05:08:36;;;;;;;15.77;10.50;;;0.90;89.00;;;-0.01;93.58;98918.19;5016873;28;21151;-69
2023/12/19 05:11:07;;;;;;;14.33;10.37;;;0.90;89.50;;;0.09;93.60;98911.16;5016787;28;20464;-70
2023/12/19 05:13:34;;;;;;;15.43;10.50;;;0.90;89.50;;;-0.02;93.45;98928.00;5024220;28;20530;-70
2023/12/19 05:16:12;;;;;;;13.13;10.50;;;0.90;88.70;;;0.05;93.36;98936.31;5014427;28;20825;-70
2023/12/19 05:18:41;;;;;;;12.37;9.50;;;0.90;88.60;;;0.02;92.80;98914.47;5018995;28;20467;-70
2023/12/19 05:21:08;;;;;;;12.83;9.43;;;1.00;88.30;;;0.12;92.53;98921.53;5006838;28;20624;-70
2023/12/19 05:23:36;;;;;;;16.20;11.50;;;1.00;88.10;;;-0.01;93.03;98905.78;4998225;28;20461;-70
2023/12/19 05:26:05;;;;;;;14.03;10.30;;;1.00;87.70;;;0.07;92.76;98906.94;5022526;28;21083;-70
2023/12/19 05:28:32;;;;;;;15.10;11.60;;;1.00;87.70;;;0.09;92.47;98911.16;5020004;28;20460;-70
2023/12/19 05:30:59;;;;;;;13.20;9.80;;;1.00;87.40;;;0.09;92.75;98905.03;5023185;28;20476;-70
2023/12/19 05:33:29;;;;;;;14.07;10.77;;;1.00;87.30;;;-0.18;92.04;98839.91;5019895;28;20483;-70
2023/12/19 05:35:56;;;;;;;12.20;9.53;;;1.00;87.20;;;0.20;91.66;98894.34;5025901;28;20476;-70
2023/12/19 05:38:24;;;;;;;14.60;10.23;;;1.10;86.90;;;-0.20;91.64;98836.53;5006949;28;20472;-71
2023/12/19 05:40:56;;;;;;;13.00;9.83;;;1.10;86.40;;;0.18;91.44;98904.25;5024797;28;20477;-72
2023/12/19 05:43:23;;;;;;;12.50;10.43;;;1.10;86.20;;;0.36;90.36;98896.56;5017961;28;21207;-72
2023/12/19 05:45:52;;;;;;;20.13;9.90;;;1.20;85.80;;;0.44;90.05;98893.25;5022249;28;21048;-72
2023/12/19 05:48:20;;;;;;;14.40;10.90;;;1.30;85.50;;;0.37;89.98;98884.97;5005737;28;20460;-72
2023/12/19 05:50:49;;;;;;;14.20;10.40;;;1.30;85.30;;;0.40;89.27;98883.88;5017425;28;20566;-73
2023/12/19 05:53:16;;;;;;;12.20;9.80;;;1.30;84.80;;;0.39;89.28;98893.66;5017790;28;20475;-78
2023/12/19 05:55:44;;;;;;;12.10;9.47;;;1.30;84.30;;;0.55;88.22;98893.22;5008676;28;20502;-69
2023/12/19 05:58:13;;;;;;;14.30;10.10;;;1.40;84.20;;;0.46;88.39;98888.66;5017275;28;20462;-70
2023/12/19 06:00:40;;;;;;;11.87;9.70;;;1.40;83.50;;;0.05;87.59;98797.28;4987431;28;20469;-70
2023/12/19 06:03:09;;;;;;;14.10;9.33;;;1.50;83.40;;;0.67;87.02;98882.47;4998354;28;20495;-79
2023/12/19 06:05:38;;;;;;;10.80;9.00;;;1.60;83.10;;;0.64;87.40;98888.06;5018641;28;21296;-68
2023/12/19 06:08:08;;;;;;;11.10;9.10;;;1.60;82.80;;;0.62;86.58;98874.06;5020748;28;20465;-70
2023/12/19 06:10:36;;;;;;;13.83;8.80;;;1.70;82.60;;;0.74;86.34;98891.63;5019894;28;20477;-70
2023/12/19 06:13:06;;;;;;;10.93;9.70;;;1.70;82.60;;;0.72;86.17;98890.06;5015693;28;20487;-70
2023/12/19 06:15:33;;;;;;;15.47;9.87;;;1.70;82.40;;;0.75;86.00;98900.44;5019490;28;20467;-69
2023/12/19 06:18:03;;;;;;;12.13;8.37;;;1.70;82.40;;;0.75;85.75;98901.31;5015842;28;20455;-70
2023/12/19 06:20:30;;;;;;;13.43;9.33;;;1.70;82.20;;;0.72;86.22;98912.22;5014906;28;20465;-70
2023/12/19 06:22:57;;;;;;;11.60;9.00;;;1.60;82.20;;;0.79;85.62;98904.56;5002188;28;20847;-69
2023/12/19 06:25:28;;;;;;;11.80;9.50;;;1.70;82.10;;;0.89;85.32;98902.78;4998404;28;20963;-69
2023/12/19 06:27:56;;;;;;;13.17;9.37;;;1.70;82.10;;;0.91;85.34;98900.00;5016809;28;20513;-69
2023/12/19 06:30:26;;;;;;;13.00;9.03;;;1.70;82.00;;;0.94;84.72;98895.25;5002665;28;20476;-70
2023/12/19 06:32:53;;;;;;;13.07;9.50;;;1.70;81.80;;;0.92;84.76;98893.69;5016122;28;20476;-71
2023/12/19 06:35:21;;;;;;;12.50;9.40;;;1.80;81.60;;;0.90;84.40;98893.00;5000882;28;20491;-67
2023/12/19 06:37:51;;;;;;;11.30;9.00;;;1.70;81.40;;;0.92;84.75;98889.22;5019385;28;20453;-67
2023/12/19 06:40:18;;;;;;;13.00;9.90;;;1.80;81.50;;;0.84;84.68;98886.38;5002907;28;20966;-66
2023/12/19 06:42:48;;;;;;;12.33;9.30;;;1.70;81.40;;;0.89;84.23;98880.66;5015407;28;20461;-67
2023/12/19 06:45:19;;;;;;;12.10;8.23;;;1.80;81.20;;;1.63;90.59;98876.88;5000518;28;20500;-67
2023/12/19 06:47:47;;;;;;;10.50;9.00;;;2.10;86.00;;;1.34;83.38;98884.75;5021484;28;21048;-68
2023/12/19 06:50:16;;;;;;;11.13;8.83;;;2.20;81.70;;;1.38;82.09;98881.69;5006192;28;20456;-69
2023/12/19 06:52:45;;;;;;;14.27;8.40;;;2.20;80.70;;;1.40;82.05;98871.75;5017766;28;20483;-68
2023/12/19 06:55:13;;;;;;;11.80;9.47;;;2.20;80.30;;;1.13;82.93;98862.53;5020422;28;20465;-68
2023/12/19 06:57:41;;;;;;;12.70;10.07;;;2.10;80.30;;;1.27;82.62;98866.66;4995217;28;21164;-67
2023/12/19 07:00:11;;;;;;;13.00;8.73;;;2.10;80.50;;;1.32;82.77;98871.59;5022840;28;20469;-66
2023/12/19 07:02:41;;;;;;;12.13;9.20;;;2.10;80.60;;;1.25;82.49;98878.44;5007913;28;21196;-67
2023/12/19 07:05:09;;;;;;;13.30;10.27;;;2.00;80.20;;;1.25;82.15;98870.44;4998903;28;20551;-68
2023/12/19 07:07:37;;;;;;;13.50;10.10;;;2.00;80.10;;;1.19;82.53;98873.66;5016198;28;20837;-68
2023/12/19 07:10:06;;;;;;;16.13;10.43;;;2.00;80.00;;;1.23;82.55;98877.72;5011746;28;20805;-68
2023/12/19 07:12:33;;;;;;;13.00;9.80;;;1.90;80.20;;;1.35;82.18;98870.47;5012391;28;20481;-69
2023/12/19 07:15:04;;;;;;;13.87;10.00;;;2.00;80.30;;;1.30;81.95;98878.88;4999433;28;20987;-68
2023/12/19 07:17:33;;;;;;;12.23;9.43;;;2.00;80.20;;;1.37;81.81;98890.66;4998583;28;20592;-70
2023/12/19 07:20:03;;;;;;;11.97;9.37;;;2.00;80.20;;;1.22;82.09;98898.19;5020266;28;20453;-67
2023/12/19 07:22:31;;;;;;;13.50;9.73;;;2.00;80.10;;;1.52;82.76;98893.81;5021248;28;20467;-68
2023/12/19 07:24:58;;;;;;;12.93;9.60;;;2.10;81.10;;;1.51;85.46;98886.78;5014416;28;20477;-69
2023/12/19 07:27:26;;;;;;;13.13;9.40;;;2.20;82.10;;;1.36;82.65;98893.44;4994806;28;20465;-68
2023/12/19 07:29:57;;;;;;;12.30;9.67;;;2.20;81.00;;;1.25;83.15;98892.59;5002476;28;20935;-67
2023/12/19 07:32:25;;;;;;;13.33;10.10;;;2.10;80.50;;;1.50;83.52;98900.25;5014014;28;20485;-68
2023/12/19 07:34:53;;;;;;;18.27;9.63;;;2.30;81.30;;;1.61;83.52;98902.81;5005529;28;20448;-68
2023/12/19 07:37:22;;;;;;;11.63;9.37;;;2.30;81.30;;;1.42;81.82;98893.75;4999378;28;20457;-68
2023/12/19 07:39:50;;;;;;;15.03;10.33;;;2.20;80.30;;;1.52;82.06;98904.47;5019312;28;20454;-69
2023/12/19 07:42:22;;;;;;;14.17;10.40;;;2.30;80.60;;;1.96;84.37;98896.13;4995977;28;21148;-69
2023/12/19 07:44:51;;;;;;;18.87;11.07;;;2.50;82.40;;;2.42;85.63;98884.91;4995624;28;20511;-70
2023/12/19 07:47:20;;;;;;;15.10;10.83;;;2.90;83.80;;;2.18;81.25;98890.69;5007000;28;20456;-70
2023/12/19 07:49:50;;;;;;;12.73;10.27;;;2.90;81.30;;;2.09;79.67;98884.38;5024195;28;20465;-69
2023/12/19 07:52:20;;;;;;;14.23;9.23;;;2.90;80.00;;;1.80;79.25;98893.16;5017843;28;20512;-70
2023/12/19 07:54:47;;;;;;;14.23;9.60;;;2.70;78.50;;;1.88;80.94;98887.16;5013636;28;20469;-67
2023/12/19 07:57:15;;;;;;;13.10;9.40;;;2.60;78.70;;;1.87;80.92;98888.13;5021121;28;20480;-68
2023/12/19 07:59:43;;;;;;;11.37;8.40;;;2.60;79.10;;;1.98;80.00;98888.00;5003477;28;20470;-71
2023/12/19 08:02:11;;;;;;;10.87;7.90;;;2.70;78.80;;;1.69;78.50;98886.97;5018420;28;20465;-70
2023/12/19 08:04:38;;;;;;;12.17;8.50;;;2.60;77.70;;;1.77;79.98;98885.44;5008020;28;20551;-75
2023/12/19 08:07:07;;;;;;;10.57;8.07;;;2.50;78.20;;;2.08;80.70;98893.34;4995645;28;20526;-75
2023/12/19 08:09:36;;;;;;;10.17;8.43;;;2.70;79.60;;;2.10;77.86;98886.03;5009522;28;20521;-75
2023/12/19 08:12:03;;;;;;;9.63;7.63;;;2.80;78.30;;;2.01;77.58;98886.88;5005783;28;20462;-76
2023/12/19 08:14:31;;;;;;;13.07;7.83;;;2.80;77.30;;;2.14;78.41;98887.44;5016809;28;20440;-75
2023/12/19 08:16:58;;;;;;;11.27;7.90;;;2.90;78.40;;;2.11;76.96;98890.38;4992520;28;20988;-75
2023/12/19 08:19:26;;;;;;;11.83;7.93;;;2.90;77.20;;;2.40;78.46;98882.38;5002272;28;20469;-75
2023/12/19 08:21:56;;;;;;;12.30;9.27;;;3.10;78.60;;;2.08;76.24;98890.69;4995349;28;20467;-76
2023/12/19 08:24:25;;;;;;;11.17;8.00;;;3.00;76.50;;;2.04;76.53;98889.25;5010248;28;20558;-75
2023/12/19 08:26:54;;;;;;;8.93;7.90;;;3.00;76.60;;;2.10;75.75;98865.53;4998735;28;20569;-75
2023/12/19 08:29:22;;;;;;;12.00;8.43;;;3.00;76.40;;;2.09;74.97;98871.03;5004656;28;20555;-73
2023/12/19 08:31:49;;;;;;;10.90;8.60;;;3.00;75.80;;;2.47;75.09;98855.16;4998356;28;20467;-74
2023/12/19 08:34:19;;;;;;;11.07;7.43;;;3.20;77.10;;;2.28;74.09;98856.00;5015694;28;20483;-75
2023/12/19 08:36:47;;;;;;;11.90;8.57;;;3.10;75.40;;;2.19;74.92;98849.69;5024626;28;20542;-74
2023/12/19 08:39:15;;;;;;;9.80;7.97;;;3.10;75.30;;;1.85;75.76;98834.94;5003218;28;20497;-74
2023/12/19 08:41:46;;;;;;;11.63;8.20;;;2.90;75.40;;;1.92;75.54;98835.25;5003056;28;20456;-74
2023/12/19 08:44:15;;;;;;;10.97;7.87;;;2.80;75.60;;;1.94;75.78;98826.13;4998602;28;21391;-75
2023/12/19 08:46:42;;;;;;;10.00;8.10;;;2.80;75.70;;;1.67;76.79;98830.31;5015850;28;20484;-74
2023/12/19 08:49:10;;;;;;;12.10;8.07;;;2.70;75.70;;;1.70;76.97;98835.34;5016368;28;20454;-75
2023/12/19 08:51:38;;;;;;;11.90;8.70;;;2.60;76.00;;;1.72;76.40;98818.38;5016145;28;20458;-74
2023/12/19 08:54:09;;;;;;;10.47;7.13;;;2.60;76.00;;;1.53;77.15;98814.72;5022122;28;20473;-75
2023/12/19 08:56:36;;;;;;;11.73;8.97;;;2.50;76.00;;;1.49;77.28;98818.66;5003628;28;20972;-75
2023/12/19 08:59:03;;;;;;;11.57;8.20;;;2.40;76.00;;;1.42;77.62;98821.84;5020595;28;20997;-75
2023/12/19 09:01:33;;;;;;;10.07;7.93;;;2.30;76.10;;;1.50;77.21;98817.66;5001768;28;20453;-75
2023/12/19 09:04:00;;;;;;;10.70;8.40;;;2.30;76.20;;;1.50;76.93;98807.03;5014177;28;20475;-75
2023/12/19 09:06:27;;;;;;;13.20;9.27;;;2.40;76.10;;;1.48;77.31;98803.66;5002034;28;21003;-74
2023/12/19 09:08:55;;;;;;;11.70;8.57;;;2.40;76.20;;;1.74;76.93;98832.41;5002826;28;20457;-75
2023/12/19 09:11:22;;;;;;;10.73;7.60;;;2.50;76.20;;;1.84;75.64;98826.13;5007706;28;20451;-75
2023/12/19 09:13:50;;;;;;;12.10;9.20;;;2.70;75.90;;;2.15;74.41;98835.78;5023590;28;20485;-76
2023/12/19 09:16:18;;;;;;;11.70;8.33;;;2.80;75.60;;;2.28;73.82;98845.34;4998512;28;20460;-75
2023/12/19 09:18:46;;;;;;;10.77;8.13;;;3.00;75.30;;;2.30;74.33;98825.56;5004655;28;21298;-74
2023/12/19 09:21:13;;;;;;;11.80;8.87;;;3.00;75.00;;;2.35;73.57;98812.63;5024319;28;20483;-75
2023/12/19 09:23:40;;;;;;;9.77;8.07;;;3.10;74.90;;;2.31;72.58;98781.03;5024465;28;20459;-75
2023/12/19 09:26:08;;;;;;;11.43;8.33;;;3.20;74.70;;;2.52;72.57;98797.72;5014980;28;20450;-74
2023/12/19 09:28:36;;;;;;;10.50;8.10;;;3.30;74.80;;;2.59;72.25;98799.78;5018819;28;20493;-73
2023/12/19 09:31:07;;;;;;;9.40;8.00;;;3.30;74.50;;;2.52;72.31;98789.72;5021212;28;20457;-76
2023/12/19 09:33:37;;;;;;;11.07;7.50;;;3.40;74.30;;;2.72;72.00;98786.97;5016637;28;20514;-74
2023/12/19 09:36:08;;;;;;;9.77;8.00;;;3.40;74.30;;;2.74;71.95;98792.16;5026491;28;20448;-73
2023/12/19 09:38:37;;;;;;;11.33;8.30;;;3.60;74.00;;;3.02;71.59;98787.69;5019621;28;20484;-75
2023/12/19 09:41:05;;;;;;;10.40;7.90;;;3.60;73.90;;;3.22;70.78;98791.09;5017113;28;20457;-75
2023/12/19 09:43:33;;;;;;;10.57;7.73;;;3.80;73.60;;;3.08;70.41;98780.91;5013763;28;20468;-74
2023/12/19 09:46:02;;;;;;;10.20;7.57;;;3.90;72.90;;;3.21;69.51;98767.19;5001238;28;20465;-75
2023/12/19 09:48:33;;;;;;;10.10;8.20;;;4.00;72.80;;;3.03;69.77;98765.34;5002126;28;20855;-75
2023/12/19 09:51:05;;;;;;;12.63;7.83;;;3.90;72.10;;;3.04;69.84;98772.34;5014618;28;20497;-75
2023/12/19 09:53:35;;;;;;;17.20;9.53;;;3.90;71.90;;;3.20;69.63;98765.53;5009197;28;20480;-75
2023/12/19 09:56:03;;;;;;;8.70;7.20;;;4.00;72.10;;;3.25;68.86;98764.09;5004045;28;20815;-75
2023/12/19 09:58:34;;;;;;;12.17;8.40;;;4.00;71.90;;;3.13;68.75;98749.25;4999801;28;20457;-75
2023/12/19 10:01:01;;;;;;;10.13;7.87;;;4.10;71.70;;;3.38;68.33;98774.41;5018670;28;20509;-74
2023/12/19 10:03:28;;;;;;;11.47;7.63;;;4.10;71.50;;;3.22;68.35;98716.31;5010869;28;20592;-74
2023/12/19 10:05:58;;;;;;;12.43;8.87;;;4.20;71.50;;;3.15;67.62;98703.72;5013829;28;20478;-75
2023/12/19 10:08:25;;;;;;;10.00;8.10;;;4.20;71.30;;;3.57;67.55;98759.25;5007504;28;20455;-75
2023/12/19 10:10:55;;;;;;;15.13;11.30;;;4.30;71.20;;;3.55;67.72;98750.50;4994035;28;20463;-75
2023/12/19 10:13:31;;;;;;;16.30;9.77;;;4.30;70.70;;;3.68;66.38;98750.16;4996623;28;20478;-75
2023/12/19 10:16:03;;;;;;;28.80;10.00;;;4.30;70.60;;;3.72;66.16;98748.03;5015064;28;20541;-75
2023/12/19 10:18:31;;;;;;;23.03;9.80;;;4.30;70.30;;;3.92;65.80;98744.19;5002292;28;20457;-75
2023/12/19 10:21:08;;;;;;;14.07;8.73;;;4.40;70.60;;;3.97;65.51;98736.50;5015498;28;20466;-74
2023/12/19 10:23:36;;;;;;;12.10;8.73;;;4.60;70.00;;;4.22;64.00;98747.41;5022828;28;20461;-74